Time;durP1;ratioP1;P1;durP2;ratioP2;P2;SDS_P1;SDS_P2;PMS_P1;PMS_P2;Temp;Humidity;BMP_temperature;BMP_pressure;BME280_temperature;BME280_humidity;BME280_pressure;Samples;Min_cycle;Max_cycle;Signal;HPM_P1;HPM_P2
2022/01/15 00:01:03;;;;;;;42.03;20.98;;;-0.50;99.90;;;;;;4992960;28;20554;-78
2022/01/15 00:03:29;;;;;;;38.03;21.85;;;-0.50;99.90;;;;;;4999792;28;20077;-78
2022/01/15 00:05:57;;;;;;;45.40;21.38;;;-0.60;99.90;;;;;;4999658;28;20523;-78
2022/01/15 00:08:23;;;;;;;42.90;21.25;;;-0.60;99.90;;;;;;5000370;28;20056;-78
2022/01/15 00:10:49;;;;;;;39.60;21.48;;;-0.60;99.90;;;;;;4998820;28;20022;-78
2022/01/15 00:13:55;;;;;;;45.30;20.35;;;-0.60;99.90;;;;;;4999445;28;20058;-78
2022/01/15 00:16:24;;;;;;;41.15;21.70;;;-0.60;99.90;;;;;;4998246;28;20034;-78
2022/01/15 00:19:08;;;;;;;48.33;22.25;;;-0.70;99.90;;;;;;5001800;28;20066;-78
2022/01/15 00:21:34;;;;;;;47.75;22.92;;;-0.60;99.90;;;;;;4998390;28;20037;-78
2022/01/15 00:24:00;;;;;;;59.38;26.33;;;-0.80;99.90;;;;;;4998438;28;20117;-78
2022/01/15 00:26:26;;;;;;;64.57;28.02;;;-1.00;99.90;;;;;;5000566;28;20026;-78
2022/01/15 00:28:51;;;;;;;65.70;28.98;;;-0.80;99.90;;;;;;4995078;28;20101;-78
2022/01/15 00:31:17;;;;;;;65.07;28.83;;;-0.80;99.90;;;;;;4998868;28;20646;-77
2022/01/15 00:33:43;;;;;;;57.15;26.25;;;-0.80;99.90;;;;;;5002531;28;20050;-77
2022/01/15 00:36:09;;;;;;;56.05;26.73;;;-0.80;99.90;;;;;;5003841;28;20018;-78
2022/01/15 00:38:35;;;;;;;60.10;26.38;;;-0.70;99.90;;;;;;5002508;28;20108;-78
2022/01/15 00:41:01;;;;;;;53.00;23.98;;;-0.80;99.90;;;;;;5004564;28;20527;-78
2022/01/15 00:43:26;;;;;;;61.67;24.98;;;-0.80;99.90;;;;;;4994165;28;20577;-78
2022/01/15 00:45:52;;;;;;;52.92;24.77;;;-0.70;99.90;;;;;;4998342;28;20018;-77
2022/01/15 00:48:18;;;;;;;55.00;24.75;;;-1.00;99.90;;;;;;5002916;28;20512;-77
2022/01/15 00:50:44;;;;;;;57.05;25.13;;;-1.10;99.90;;;;;;5003284;28;20159;-77
2022/01/15 00:53:10;;;;;;;57.70;25.20;;;-1.10;99.90;;;;;;4999056;28;20084;-77
2022/01/15 00:55:36;;;;;;;56.92;25.95;;;-1.10;99.90;;;;;;5001924;28;20446;-77
2022/01/15 00:58:01;;;;;;;51.78;24.35;;;-0.90;99.90;;;;;;5003621;28;20018;-78
2022/01/15 01:00:27;;;;;;;62.13;26.17;;;-1.00;99.90;;;;;;4998341;28;20419;-77
2022/01/15 01:02:54;;;;;;;59.53;25.25;;;-1.00;99.90;;;;;;4998048;28;20466;-77
2022/01/15 01:05:20;;;;;;;50.83;25.33;;;-0.90;99.90;;;;;;4999872;28;20083;-77
2022/01/15 01:07:47;;;;;;;51.38;23.58;;;-1.00;99.90;;;;;;4998379;28;20064;-77
2022/01/15 01:23:27;;;;;;;57.50;26.98;;;-1.00;99.90;;;;;;5003760;28;20030;-76
2022/01/15 01:26:00;;;;;;;56.28;25.35;;;-0.90;99.90;;;;;;4999323;28;20032;-76
2022/01/15 01:28:36;;;;;;;55.22;24.00;;;-0.90;99.90;;;;;;5000895;28;20032;-76
2022/01/15 01:31:12;;;;;;;54.53;24.75;;;-1.00;99.90;;;;;;5003904;28;20019;-76
2022/01/15 01:33:42;;;;;;;53.33;25.50;;;-1.10;99.90;;;;;;5007058;28;20023;-76
2022/01/15 01:36:17;;;;;;;53.08;24.40;;;-1.00;99.90;;;;;;5008343;28;20029;-76
2022/01/15 01:38:53;;;;;;;50.20;24.00;;;-1.00;99.90;;;;;;5002679;28;20034;-75
2022/01/15 01:41:20;;;;;;;44.85;22.92;;;-1.10;99.90;;;;;;5002719;28;20025;-76
2022/01/15 01:43:52;;;;;;;52.80;24.00;;;-1.10;99.90;;;;;;4997035;28;20022;-76
2022/01/15 01:48:52;;;;;;;46.00;22.55;;;-1.10;99.90;;;;;;4996504;28;20031;-76
2022/01/15 01:51:34;;;;;;;47.47;21.85;;;-1.10;99.90;;;;;;5005129;28;20030;-76
2022/01/15 01:54:05;;;;;;;45.90;22.27;;;-1.10;99.90;;;;;;5004804;28;20022;-76
2022/01/15 01:56:31;;;;;;;40.17;21.88;;;-1.10;99.90;;;;;;5002240;28;20105;-75
2022/01/15 01:58:58;;;;;;;43.70;22.10;;;-1.10;99.90;;;;;;4997681;28;20034;-75
2022/01/15 02:01:24;;;;;;;45.10;21.60;;;-1.20;99.90;;;;;;4997864;28;20026;-75
2022/01/15 02:03:50;;;;;;;42.40;22.08;;;-1.20;99.90;;;;;;5001181;28;20088;-75
2022/01/15 02:06:18;;;;;;;41.25;22.83;;;-1.30;99.90;;;;;;5003796;28;20022;-77
2022/01/15 02:08:44;;;;;;;42.72;20.60;;;-1.20;99.90;;;;;;5003884;28;20072;-76
2022/01/15 02:11:10;;;;;;;39.13;20.83;;;-1.30;99.90;;;;;;5000709;28;20032;-75
2022/01/15 02:13:41;;;;;;;40.78;20.73;;;-1.30;99.90;;;;;;5001148;28;20044;-76
2022/01/15 02:16:08;;;;;;;45.47;21.67;;;-1.30;99.90;;;;;;5006694;28;20026;-75
2022/01/15 02:18:35;;;;;;;41.60;20.33;;;-1.20;99.90;;;;;;4997712;28;20105;-74
2022/01/15 02:23:46;;;;;;;43.15;21.67;;;-1.30;99.90;;;;;;5003566;28;20380;-75
2022/01/15 02:26:16;;;;;;;39.00;20.88;;;-1.20;99.90;;;;;;4996756;28;20028;-76
2022/01/15 02:28:57;;;;;;;41.97;20.20;;;-1.20;99.90;;;;;;5001086;28;20037;-75
2022/01/15 02:31:24;;;;;;;39.27;20.27;;;-1.30;99.90;;;;;;5002848;28;20096;-75
2022/01/15 02:33:52;;;;;;;38.03;20.02;;;-1.30;99.90;;;;;;5004401;28;20065;-75
2022/01/15 02:36:28;;;;;;;38.30;19.98;;;-1.30;99.90;;;;;;5007338;28;20053;-75
2022/01/15 02:38:54;;;;;;;40.38;20.90;;;-1.30;99.90;;;;;;4998140;28;20038;-75
2022/01/15 02:41:37;;;;;;;40.85;19.83;;;-1.40;99.90;;;;;;5000690;28;20022;-75
2022/01/15 02:44:09;;;;;;;36.70;19.67;;;-1.30;99.90;;;;;;4988639;28;20029;-75
2022/01/15 02:48:00;;;;;;;36.58;18.90;;;-1.30;99.90;;;;;;5000525;28;20030;-75
2022/01/15 02:49:22;;;;;;;40.70;20.50;;;-1.40;99.90;;;;;;5001801;28;20112;-75
2022/01/15 02:51:48;;;;;;;35.65;19.38;;;-1.40;99.90;;;;;;5002507;28;20064;-75
2022/01/15 02:54:14;;;;;;;35.75;17.85;;;-1.50;99.90;;;;;;5005521;28;20108;-75
2022/01/15 02:56:42;;;;;;;36.33;18.52;;;-1.50;99.90;;;;;;5001132;28;20415;-76
2022/01/15 02:59:14;;;;;;;38.90;18.80;;;-1.50;99.90;;;;;;4999523;28;20038;-75
2022/01/15 03:01:40;;;;;;;37.60;18.92;;;-1.50;99.90;;;;;;4996653;28;20030;-75
2022/01/15 03:04:05;;;;;;;38.83;17.95;;;-1.50;99.90;;;;;;4999038;28;20031;-74
2022/01/15 03:06:31;;;;;;;37.50;18.13;;;-1.40;99.90;;;;;;5004171;28;20593;-75
2022/01/15 03:08:57;;;;;;;36.33;18.10;;;-1.40;99.90;;;;;;5002288;28;20417;-75
2022/01/15 03:11:23;;;;;;;38.65;18.48;;;-1.50;99.90;;;;;;5001689;28;20109;-75
2022/01/15 03:13:49;;;;;;;34.85;16.98;;;-1.50;99.90;;;;;;5002803;28;20578;-76
2022/01/15 03:16:18;;;;;;;35.38;17.58;;;-1.60;99.90;;;;;;4991538;28;20042;-74
2022/01/15 03:18:44;;;;;;;33.72;16.92;;;-1.60;99.90;;;;;;5009366;28;20573;-74
2022/01/15 03:21:10;;;;;;;30.15;16.33;;;-1.60;99.90;;;;;;5000531;28;20038;-74
2022/01/15 03:23:37;;;;;;;34.33;17.42;;;-1.60;99.90;;;;;;5001080;28;20373;-74
2022/01/15 03:26:03;;;;;;;32.42;16.80;;;-1.60;99.90;;;;;;4999190;28;20030;-74
2022/01/15 03:28:29;;;;;;;32.13;15.80;;;-1.70;99.90;;;;;;4999795;28;20091;-74
2022/01/15 03:30:54;;;;;;;33.90;17.30;;;-1.70;99.90;;;;;;5002790;28;20471;-74
2022/01/15 03:33:20;;;;;;;37.25;18.10;;;-1.70;99.90;;;;;;5007800;28;20032;-74
2022/01/15 03:35:47;;;;;;;37.80;16.30;;;-1.70;99.90;;;;;;4999659;28;20062;-74
2022/01/15 03:38:13;;;;;;;38.03;17.58;;;-1.70;99.90;;;;;;4999675;28;20030;-75
2022/01/15 03:40:38;;;;;;;32.38;16.73;;;-1.70;99.90;;;;;;5026711;28;20510;-75
2022/01/15 03:43:05;;;;;;;41.08;17.35;;;-1.70;99.90;;;;;;4998574;28;20025;-74
2022/01/15 03:45:31;;;;;;;29.17;15.82;;;-1.70;99.90;;;;;;5003412;28;20026;-75
2022/01/15 03:47:57;;;;;;;37.00;18.08;;;-1.80;99.90;;;;;;5001462;28;20025;-74
2022/01/15 03:50:25;;;;;;;32.33;17.23;;;-1.80;99.90;;;;;;4999307;28;20111;-74
2022/01/15 03:52:51;;;;;;;29.85;15.85;;;-1.70;99.90;;;;;;5001575;28;20022;-74
2022/01/15 03:55:17;;;;;;;34.47;16.35;;;-1.80;99.90;;;;;;5004370;28;20068;-74
2022/01/15 03:57:43;;;;;;;31.17;16.92;;;-1.80;99.90;;;;;;4996742;28;20574;-74
2022/01/15 04:00:21;;;;;;;28.45;16.40;;;-1.80;99.90;;;;;;5001474;28;20030;-74
2022/01/15 04:02:49;;;;;;;28.02;14.95;;;-1.80;99.90;;;;;;5002158;28;20026;-74
2022/01/15 04:05:15;;;;;;;29.02;16.08;;;-1.80;99.90;;;;;;4987459;28;20034;-75
2022/01/15 04:07:41;;;;;;;32.30;16.00;;;-1.80;99.90;;;;;;5000651;28;20172;-74
2022/01/15 04:10:09;;;;;;;27.95;14.88;;;-1.80;99.90;;;;;;4999766;28;20539;-75
2022/01/15 04:12:34;;;;;;;26.52;14.52;;;-1.80;99.90;;;;;;5004813;28;20025;-74
2022/01/15 04:15:01;;;;;;;29.45;15.90;;;-1.80;99.90;;;;;;4995726;28;20030;-75
2022/01/15 04:17:26;;;;;;;30.13;16.13;;;-1.80;99.90;;;;;;5000202;28;20026;-75
2022/01/15 04:19:53;;;;;;;25.85;14.40;;;-1.90;99.90;;;;;;4995926;28;20518;-74
2022/01/15 04:22:19;;;;;;;30.77;15.93;;;-1.90;99.90;;;;;;4995368;28;20033;-74
2022/01/15 04:24:44;;;;;;;30.92;15.27;;;-1.90;99.90;;;;;;5001817;28;20030;-74
2022/01/15 04:27:10;;;;;;;31.05;15.15;;;-1.90;99.90;;;;;;5001534;28;20033;-74
2022/01/15 04:29:36;;;;;;;25.80;14.70;;;-1.90;99.90;;;;;;4999138;28;20038;-75
2022/01/15 04:32:02;;;;;;;27.75;13.80;;;-1.90;99.90;;;;;;5002865;28;20041;-74
2022/01/15 04:34:29;;;;;;;29.23;15.48;;;-1.90;99.90;;;;;;5005098;28;20030;-75
2022/01/15 04:37:12;;;;;;;33.15;16.08;;;-1.90;99.90;;;;;;4994959;28;20064;-75
2022/01/15 04:39:39;;;;;;;25.38;13.93;;;-2.00;99.90;;;;;;4994829;28;20057;-74
2022/01/15 04:42:05;;;;;;;26.83;14.07;;;-1.90;99.90;;;;;;5006504;28;20525;-75
2022/01/15 04:44:31;;;;;;;27.98;14.57;;;-1.90;99.90;;;;;;5004381;28;20038;-75
2022/01/15 04:46:59;;;;;;;24.90;13.13;;;-2.00;99.90;;;;;;5001248;28;20022;-74
2022/01/15 04:49:25;;;;;;;28.00;14.02;;;-2.00;99.90;;;;;;5005973;28;20029;-75
2022/01/15 04:51:50;;;;;;;26.00;14.00;;;-2.10;99.90;;;;;;5009065;28;20072;-75
2022/01/15 04:54:16;;;;;;;23.60;13.82;;;-2.10;99.90;;;;;;4999680;28;20436;-75
2022/01/15 04:56:42;;;;;;;26.63;14.65;;;-2.10;99.90;;;;;;5000525;28;20504;-75
2022/01/15 04:59:07;;;;;;;28.05;13.55;;;-2.10;99.90;;;;;;5001375;28;20060;-75
2022/01/15 05:01:33;;;;;;;25.23;12.95;;;-2.10;99.90;;;;;;4999857;28;20053;-75
2022/01/15 05:03:59;;;;;;;27.83;14.23;;;-2.10;99.90;;;;;;5002447;28;20030;-75
2022/01/15 05:06:25;;;;;;;27.73;14.27;;;-2.20;99.90;;;;;;5007653;28;20101;-75
2022/01/15 05:09:01;;;;;;;27.00;13.95;;;-2.20;99.90;;;;;;5003887;28;20033;-75
2022/01/15 05:11:31;;;;;;;24.52;13.40;;;-2.20;99.90;;;;;;5005558;28;20022;-75
2022/01/15 05:13:57;;;;;;;25.48;13.90;;;-2.20;99.90;;;;;;5005595;28;20022;-75
2022/01/15 05:16:22;;;;;;;25.60;13.57;;;-2.20;99.90;;;;;;4996531;28;20451;-75
2022/01/15 05:18:48;;;;;;;23.08;13.75;;;-2.30;99.90;;;;;;5002893;28;20030;-76
2022/01/15 05:21:14;;;;;;;26.98;13.77;;;-2.20;99.90;;;;;;5003945;28;20603;-75
2022/01/15 05:23:40;;;;;;;28.90;14.50;;;-2.20;99.90;;;;;;4999615;28;20537;-75
2022/01/15 05:26:06;;;;;;;23.55;12.90;;;-2.20;99.90;;;;;;5002038;28;20110;-75
2022/01/15 05:28:31;;;;;;;24.33;12.65;;;-2.20;99.90;;;;;;5004839;28;20034;-75
2022/01/15 05:30:57;;;;;;;25.25;13.88;;;-2.20;99.90;;;;;;5009100;28;20436;-75
2022/01/15 05:33:23;;;;;;;26.52;13.57;;;-2.20;99.90;;;;;;5002317;28;20561;-75
2022/01/15 05:35:48;;;;;;;28.80;14.10;;;-2.20;99.90;;;;;;5003207;28;20030;-75
2022/01/15 05:38:14;;;;;;;22.15;12.00;;;-2.30;99.90;;;;;;5000494;28;20410;-75
2022/01/15 05:40:40;;;;;;;24.95;13.43;;;-2.30;99.90;;;;;;4999066;28;20038;-75
2022/01/15 05:43:05;;;;;;;23.67;13.70;;;-2.30;99.90;;;;;;5002635;28;20541;-76
2022/01/15 05:45:31;;;;;;;21.60;11.30;;;-2.30;99.90;;;;;;5004129;28;20077;-75
2022/01/15 05:47:57;;;;;;;23.38;12.02;;;-2.30;99.90;;;;;;5004630;28;20137;-75
2022/01/15 05:50:23;;;;;;;26.25;13.57;;;-2.20;99.90;;;;;;5001921;28;20023;-75
2022/01/15 05:52:48;;;;;;;24.73;12.90;;;-2.30;99.90;;;;;;4995995;28;20026;-75
2022/01/15 05:55:14;;;;;;;22.98;11.98;;;-2.20;99.90;;;;;;4995941;28;20056;-75
2022/01/15 05:57:40;;;;;;;22.52;12.13;;;-2.30;99.90;;;;;;5003502;28;20289;-75
2022/01/15 06:00:07;;;;;;;24.30;11.60;;;-2.40;99.90;;;;;;5005517;28;20655;-75
2022/01/15 06:02:33;;;;;;;23.92;12.52;;;-2.40;99.90;;;;;;5033804;28;20030;-75
2022/01/15 06:04:59;;;;;;;24.42;11.40;;;-2.40;99.90;;;;;;4998686;28;20030;-75
2022/01/15 06:07:25;;;;;;;23.65;11.50;;;-2.40;99.90;;;;;;5004578;28;20034;-75
2022/01/15 06:09:50;;;;;;;22.67;11.52;;;-2.30;99.90;;;;;;5007569;28;20095;-75
2022/01/15 06:12:16;;;;;;;24.80;12.20;;;-2.40;99.90;;;;;;5000297;28;20563;-75
2022/01/15 06:14:42;;;;;;;27.15;11.52;;;-2.40;99.90;;;;;;4999454;28;20030;-75
2022/01/15 06:17:08;;;;;;;23.30;11.95;;;-2.40;99.90;;;;;;5000194;28;20026;-75
2022/01/15 06:19:36;;;;;;;18.90;10.45;;;-2.40;99.90;;;;;;4997480;28;20045;-75
2022/01/15 06:22:03;;;;;;;19.15;10.15;;;-2.40;99.90;;;;;;5025302;28;20512;-75
2022/01/15 06:24:29;;;;;;;18.13;10.18;;;-2.40;99.90;;;;;;5004249;28;20030;-75
2022/01/15 06:26:56;;;;;;;18.20;10.02;;;-2.50;99.90;;;;;;5004375;28;20022;-75
2022/01/15 06:29:22;;;;;;;20.05;10.82;;;-2.60;99.90;;;;;;5002282;28;20030;-75
2022/01/15 06:31:48;;;;;;;21.05;9.90;;;-2.60;99.90;;;;;;4997517;28;20048;-74
2022/01/15 06:34:13;;;;;;;20.15;9.32;;;-2.50;99.90;;;;;;4995961;28;20423;-75
2022/01/15 06:36:39;;;;;;;20.90;10.18;;;-2.60;99.90;;;;;;5002490;28;20452;-75
2022/01/15 06:39:05;;;;;;;20.75;10.90;;;-2.50;99.90;;;;;;5004621;28;20420;-75
2022/01/15 06:41:31;;;;;;;19.75;10.60;;;-2.60;99.90;;;;;;5002675;28;20439;-75
2022/01/15 06:43:56;;;;;;;18.20;10.02;;;-2.60;99.90;;;;;;4999774;28;20029;-74
2022/01/15 06:46:22;;;;;;;20.58;10.65;;;-2.60;99.90;;;;;;4998236;28;20389;-73
2022/01/15 06:48:48;;;;;;;17.88;10.32;;;-2.60;99.90;;;;;;4993767;28;20462;-73
2022/01/15 06:51:13;;;;;;;24.17;10.95;;;-2.60;99.90;;;;;;4996109;28;20437;-73
2022/01/15 06:53:39;;;;;;;18.60;10.00;;;-2.60;99.90;;;;;;4997473;28;20048;-74
2022/01/15 06:56:05;;;;;;;14.93;9.73;;;-2.50;99.90;;;;;;4988342;28;20452;-74
2022/01/15 06:58:31;;;;;;;18.45;10.27;;;-2.60;99.90;;;;;;4984759;28;20038;-73
2022/01/15 07:00:56;;;;;;;18.15;10.10;;;-2.60;99.90;;;;;;5000247;28;20022;-74
2022/01/15 07:03:22;;;;;;;20.73;10.25;;;-2.60;99.90;;;;;;4993416;28;20085;-74
2022/01/15 07:05:48;;;;;;;17.73;10.35;;;-2.50;99.90;;;;;;4984658;28;20030;-74
2022/01/15 07:08:13;;;;;;;23.05;10.30;;;-2.50;99.90;;;;;;4987378;28;20026;-74
2022/01/15 07:10:41;;;;;;;19.63;11.05;;;-2.50;99.90;;;;;;4993947;28;20405;-74
2022/01/15 07:13:07;;;;;;;21.38;11.82;;;-2.60;99.90;;;;;;4986724;28;20011;-73
2022/01/15 07:15:33;;;;;;;20.95;10.07;;;-2.60;99.90;;;;;;4991417;28;20076;-73
2022/01/15 07:18:00;;;;;;;17.73;9.93;;;-2.60;99.90;;;;;;5002590;28;20069;-73
2022/01/15 07:20:27;;;;;;;17.85;9.75;;;-2.60;99.90;;;;;;4996966;28;20109;-73
2022/01/15 07:22:53;;;;;;;19.83;9.27;;;-2.60;99.90;;;;;;4998748;28;20022;-74
2022/01/15 07:25:19;;;;;;;16.92;9.10;;;-2.60;99.90;;;;;;5000677;28;20030;-74
2022/01/15 07:27:46;;;;;;;18.75;9.48;;;-2.60;99.90;;;;;;5003669;28;20109;-74
2022/01/15 07:30:13;;;;;;;14.50;8.82;;;-2.60;99.90;;;;;;5006276;28;20029;-74
2022/01/15 07:32:40;;;;;;;17.65;9.27;;;-2.60;99.90;;;;;;4999230;28;20659;-74
2022/01/15 07:35:08;;;;;;;17.38;10.52;;;-2.60;99.90;;;;;;4998132;28;20029;-74
2022/01/15 07:37:35;;;;;;;16.08;8.77;;;-2.60;99.90;;;;;;4994851;28;20131;-73
2022/01/15 07:40:01;;;;;;;18.98;9.77;;;-2.60;99.90;;;;;;4997955;28;20050;-73
2022/01/15 07:42:34;;;;;;;19.52;11.73;;;-2.50;99.90;;;;;;5001499;28;20030;-74
2022/01/15 07:45:00;;;;;;;23.15;11.90;;;-2.50;99.90;;;;;;5005183;28;20022;-73
2022/01/15 07:47:26;;;;;;;20.95;11.45;;;-2.50;99.90;;;;;;4998509;28;20022;-74
2022/01/15 07:49:51;;;;;;;20.80;12.52;;;-2.40;99.90;;;;;;5002949;28;20414;-74
2022/01/15 07:52:19;;;;;;;23.35;12.18;;;-2.40;99.90;;;;;;5003845;28;20033;-73
2022/01/15 07:54:45;;;;;;;22.85;12.27;;;-2.30;99.90;;;;;;4999288;28;20030;-73
2022/01/15 07:57:10;;;;;;;21.45;12.05;;;-2.10;99.90;;;;;;5001504;28;20026;-74
2022/01/15 07:59:36;;;;;;;24.15;11.23;;;-1.40;99.90;;;;;;4998006;28;20030;-74
2022/01/15 08:02:03;;;;;;;20.73;11.90;;;-1.60;99.90;;;;;;4994827;28;20034;-73
2022/01/15 08:04:28;;;;;;;20.48;11.30;;;-0.70;99.90;;;;;;5003498;28;20033;-74
2022/01/15 08:06:54;;;;;;;22.25;12.15;;;1.10;99.90;;;;;;5007005;28;20030;-74
2022/01/15 08:09:20;;;;;;;20.27;10.40;;;1.80;99.90;;;;;;4997442;28;20116;-73
2022/01/15 08:11:46;;;;;;;17.88;9.77;;;2.00;99.90;;;;;;4999316;28;20536;-74
2022/01/15 08:14:11;;;;;;;19.15;10.75;;;1.60;99.90;;;;;;4986563;28;20049;-74
2022/01/15 08:16:37;;;;;;;19.55;10.65;;;0.30;99.90;;;;;;4991312;28;20395;-74
2022/01/15 08:19:03;;;;;;;19.52;10.77;;;-0.30;99.90;;;;;;5027676;28;20161;-74
2022/01/15 08:21:28;;;;;;;18.95;10.02;;;-0.10;99.90;;;;;;5005781;28;20089;-74
2022/01/15 08:23:54;;;;;;;15.30;9.30;;;0.00;99.90;;;;;;5004355;28;20423;-73
2022/01/15 08:26:20;;;;;;;18.83;9.63;;;-0.30;99.90;;;;;;4999073;28;20030;-73
2022/01/15 08:28:46;;;;;;;16.38;9.90;;;-0.50;99.90;;;;;;5001847;28;20462;-74
2022/01/15 08:31:11;;;;;;;18.83;10.30;;;-0.30;99.90;;;;;;5000317;28;20109;-74
2022/01/15 08:33:37;;;;;;;18.73;10.05;;;0.60;99.90;;;;;;5000178;28;20033;-74
2022/01/15 08:36:03;;;;;;;17.52;10.13;;;1.10;99.90;;;;;;5001726;28;20022;-74
2022/01/15 08:38:29;;;;;;;19.92;10.63;;;1.60;99.90;;;;;;5002936;28;20529;-74
2022/01/15 08:40:55;;;;;;;20.50;10.68;;;0.90;99.90;;;;;;4997633;28;20049;-74
2022/01/15 08:43:20;;;;;;;15.65;9.35;;;0.90;99.90;;;;;;4996022;28;20033;-74
2022/01/15 08:45:47;;;;;;;17.38;10.20;;;0.60;99.90;;;;;;5008134;28;20441;-73
2022/01/15 08:48:14;;;;;;;16.98;10.13;;;1.20;99.90;;;;;;5003493;28;20043;-73
2022/01/15 08:50:40;;;;;;;17.73;10.00;;;2.80;99.90;;;;;;5001133;28;20026;-73
2022/01/15 08:53:06;;;;;;;18.40;9.65;;;4.30;99.90;;;;;;5000333;28;20073;-74
2022/01/15 08:55:33;;;;;;;19.40;10.23;;;3.00;99.90;;;;;;4995963;28;20030;-74
2022/01/15 08:57:59;;;;;;;15.85;9.32;;;4.30;99.90;;;;;;4998866;28;20032;-73
2022/01/15 09:00:27;;;;;;;15.20;8.95;;;5.40;98.50;;;;;;4998151;28;20458;-73
2022/01/15 09:02:55;;;;;;;13.73;7.97;;;3.70;99.90;;;;;;5001427;28;20034;-74
2022/01/15 09:05:22;;;;;;;14.00;7.28;;;2.30;99.90;;;;;;4994952;28;20037;-73
2022/01/15 09:07:48;;;;;;;14.82;7.38;;;2.50;99.90;;;;;;4997750;28;20037;-73
2022/01/15 09:10:14;;;;;;;14.52;6.97;;;3.60;99.90;;;;;;4998138;28;20029;-74
2022/01/15 09:12:40;;;;;;;11.77;7.07;;;3.30;99.90;;;;;;5002561;28;20595;-73
2022/01/15 09:15:07;;;;;;;11.60;6.45;;;3.40;99.90;;;;;;5010059;28;20033;-74
2022/01/15 09:17:33;;;;;;;11.43;5.90;;;4.20;99.90;;;;;;5007430;28;20026;-74
2022/01/15 09:19:58;;;;;;;12.10;5.95;;;6.90;98.90;;;;;;5004723;28;20498;-74
2022/01/15 09:22:24;;;;;;;11.98;6.45;;;7.30;96.40;;;;;;5009082;28;20018;-74
2022/01/15 09:24:50;;;;;;;12.95;8.25;;;6.80;96.70;;;;;;5000631;28;20097;-74
2022/01/15 09:30:13;;;;;;;13.65;7.68;;;5.80;98.30;;;;;;4997223;28;20495;-74
2022/01/15 09:32:54;;;;;;;14.65;8.23;;;7.20;96.00;;;;;;4998254;28;20041;-74
2022/01/15 09:35:22;;;;;;;12.85;7.13;;;4.60;99.00;;;;;;4998177;28;20420;-75
2022/01/15 09:37:51;;;;;;;14.38;7.88;;;3.50;99.90;;;;;;4998688;28;20148;-74
2022/01/15 09:40:19;;;;;;;11.38;7.38;;;3.20;99.90;;;;;;4989442;28;28023;-75
2022/01/15 09:42:47;;;;;;;15.35;7.25;;;2.40;99.90;;;;;;5005695;28;20081;-75
2022/01/15 09:45:14;;;;;;;12.05;6.75;;;2.40;99.90;;;;;;5000288;28;20034;-74
2022/01/15 09:47:40;;;;;;;13.73;6.93;;;2.20;99.90;;;;;;5000414;28;20085;-74
2022/01/15 09:50:09;;;;;;;9.75;6.50;;;1.90;99.90;;;;;;4996673;28;20027;-74
2022/01/15 09:52:35;;;;;;;9.45;6.20;;;2.00;99.90;;;;;;4996104;28;20026;-75
2022/01/15 09:55:09;;;;;;;8.77;5.78;;;2.00;99.90;;;;;;4999815;28;20073;-74
2022/01/15 09:57:35;;;;;;;12.32;6.28;;;1.80;99.90;;;;;;5006590;28;20109;-74
2022/01/15 10:00:04;;;;;;;9.80;5.82;;;1.90;99.90;;;;;;5003625;28;20026;-74
2022/01/15 10:02:30;;;;;;;10.50;6.85;;;1.70;99.90;;;;;;5004284;28;20038;-74
2022/01/15 10:04:55;;;;;;;12.40;6.25;;;1.40;99.90;;;;;;5007335;28;20388;-74
2022/01/15 10:07:27;;;;;;;9.57;6.50;;;1.70;99.90;;;;;;4994765;28;20026;-74
2022/01/15 10:09:54;;;;;;;8.65;6.03;;;1.80;99.90;;;;;;5000802;28;20100;-74
2022/01/15 10:12:41;;;;;;;10.32;6.40;;;1.80;99.90;;;;;;5003784;28;20030;-75
2022/01/15 10:15:07;;;;;;;10.95;5.50;;;1.80;99.90;;;;;;5002976;28;20077;-75
2022/01/15 10:17:36;;;;;;;9.25;5.90;;;2.00;99.90;;;;;;4999369;28;20026;-74
2022/01/15 10:20:11;;;;;;;10.30;6.15;;;2.10;99.90;;;;;;4999362;28;20025;-75
2022/01/15 10:22:48;;;;;;;8.73;5.28;;;2.10;99.90;;;;;;5005926;28;20117;-75
2022/01/15 10:25:21;;;;;;;9.88;5.63;;;2.00;99.90;;;;;;5007011;28;20027;-74
2022/01/15 10:27:54;;;;;;;11.40;5.47;;;2.10;99.90;;;;;;4999096;28;20018;-74
2022/01/15 10:30:26;;;;;;;10.32;5.43;;;2.10;99.90;;;;;;5002544;28;20165;-75
2022/01/15 10:33:05;;;;;;;11.10;5.85;;;2.30;99.90;;;;;;5003673;28;20515;-75
2022/01/15 10:35:33;;;;;;;9.15;5.90;;;2.30;99.90;;;;;;4993663;28;20040;-75
2022/01/15 10:38:06;;;;;;;10.80;6.63;;;2.40;99.90;;;;;;4997615;28;20026;-75
2022/01/15 10:40:41;;;;;;;10.75;6.95;;;2.50;99.90;;;;;;4993238;28;20089;-74
2022/01/15 10:43:09;;;;;;;10.20;6.60;;;2.60;99.90;;;;;;5003524;28;20491;-74
2022/01/15 10:45:46;;;;;;;12.20;6.00;;;2.80;99.90;;;;;;4998958;28;20025;-75
2022/01/15 10:48:21;;;;;;;12.90;6.72;;;2.90;99.90;;;;;;4999749;28;20035;-74
2022/01/15 10:50:57;;;;;;;11.98;6.40;;;3.00;99.90;;;;;;5001614;28;20080;-74
2022/01/15 10:53:44;;;;;;;14.05;7.65;;;3.00;99.90;;;;;;4998795;28;20018;-75
2022/01/15 10:56:13;;;;;;;12.90;6.75;;;3.10;99.90;;;;;;4999137;28;20018;-74
2022/01/15 10:58:39;;;;;;;14.25;7.78;;;3.10;99.90;;;;;;5002328;28;20518;-74
2022/01/15 11:01:06;;;;;;;30.70;17.05;;;3.40;99.90;;;;;;5000036;28;20061;-74
2022/01/15 11:03:50;;;;;;;28.50;15.13;;;3.60;99.90;;;;;;5010276;28;20559;-75
2022/01/15 11:06:37;;;;;;;25.08;12.88;;;3.40;99.90;;;;;;4996588;28;20033;-74
2022/01/15 11:09:03;;;;;;;18.92;10.82;;;3.50;99.90;;;;;;4992374;28;20049;-74
2022/01/15 11:11:32;;;;;;;20.30;10.55;;;3.90;99.90;;;;;;5000389;28;20045;-74
2022/01/15 11:13:59;;;;;;;17.13;9.57;;;3.70;99.90;;;;;;4996877;28;20160;-75
2022/01/15 11:16:25;;;;;;;14.02;8.50;;;3.50;99.90;;;;;;5001694;28;20117;-75
2022/01/15 11:18:54;;;;;;;14.38;7.82;;;3.60;99.90;;;;;;4996109;28;20117;-74
2022/01/15 11:21:23;;;;;;;13.45;7.63;;;3.50;99.90;;;;;;5007239;28;20029;-74
2022/01/15 11:23:50;;;;;;;12.73;7.30;;;4.10;99.90;;;;;;4997797;28;20504;-74
2022/01/15 11:26:17;;;;;;;13.98;7.07;;;4.50;99.90;;;;;;4990509;28;20026;-74
2022/01/15 11:28:43;;;;;;;13.07;6.40;;;4.60;99.90;;;;;;4995779;28;20038;-75
2022/01/15 11:31:20;;;;;;;11.00;6.53;;;4.40;99.90;;;;;;4992374;28;20077;-75
2022/01/15 11:33:49;;;;;;;11.80;7.05;;;4.30;99.90;;;;;;4985772;28;20157;-75
2022/01/15 11:36:47;;;;;;;12.40;6.60;;;4.60;99.90;;;;;;5000820;28;20037;-75
2022/01/15 11:39:29;;;;;;;12.50;6.60;;;4.50;99.90;;;;;;5002455;28;20046;-75
2022/01/15 11:41:55;;;;;;;9.73;6.45;;;4.40;99.90;;;;;;4972165;28;20053;-75
2022/01/15 11:44:30;;;;;;;11.38;6.50;;;4.20;99.90;;;;;;4976928;28;20029;-75
2022/01/15 11:47:00;;;;;;;10.65;6.00;;;4.50;99.90;;;;;;4990624;28;20030;-75
2022/01/15 11:49:34;;;;;;;12.05;5.95;;;4.60;99.90;;;;;;4972110;28;20034;-75
2022/01/15 11:52:06;;;;;;;13.45;6.25;;;4.60;99.90;;;;;;4977802;28;20043;-75
2022/01/15 11:54:32;;;;;;;8.75;5.28;;;5.00;99.90;;;;;;5002034;28;20109;-75
2022/01/15 11:57:00;;;;;;;8.50;5.28;;;4.80;99.90;;;;;;5000334;28;20034;-75
2022/01/15 11:59:26;;;;;;;8.52;5.03;;;4.60;99.90;;;;;;4995509;28;20084;-75
2022/01/15 12:01:54;;;;;;;12.52;7.72;;;4.90;99.90;;;;;;4985583;28;20042;-75
2022/01/15 12:04:38;;;;;;;9.82;6.32;;;5.50;99.90;;;;;;4990006;28;20030;-75
2022/01/15 12:07:04;;;;;;;12.93;6.65;;;5.00;99.90;;;;;;4978004;28;20073;-75
2022/01/15 12:09:32;;;;;;;9.80;6.07;;;5.10;99.90;;;;;;4984471;28;20030;-75
2022/01/15 12:11:58;;;;;;;10.20;5.95;;;5.50;99.90;;;;;;5001239;28;20039;-75
2022/01/15 12:14:49;;;;;;;6.90;4.93;;;5.10;99.90;;;;;;4989355;28;20034;-75
2022/01/15 12:17:38;;;;;;;10.15;5.68;;;5.20;99.90;;;;;;5000004;28;20033;-75
2022/01/15 12:20:26;;;;;;;12.38;6.05;;;5.80;99.90;;;;;;5002794;28;20116;-75
2022/01/15 12:22:53;;;;;;;9.85;4.85;;;6.30;98.70;;;;;;4982135;28;20057;-75
2022/01/15 12:25:19;;;;;;;5.20;3.50;;;6.90;96.40;;;;;;4994059;28;20026;-75
2022/01/15 12:28:06;;;;;;;6.65;3.58;;;7.20;94.50;;;;;;4988655;28;20026;-75
2022/01/15 12:30:34;;;;;;;4.85;3.03;;;7.20;94.80;;;;;;4990907;28;20041;-75
2022/01/15 12:33:02;;;;;;;6.90;3.50;;;7.40;94.90;;;;;;5003437;28;20030;-75
2022/01/15 12:35:33;;;;;;;7.50;3.42;;;7.30;95.30;;;;;;4997092;28;20022;-75
2022/01/15 12:37:59;;;;;;;4.82;2.97;;;7.10;94.30;;;;;;4997868;28;20552;-75
2022/01/15 12:40:44;;;;;;;9.15;4.93;;;7.00;95.50;;;;;;4991505;28;20058;-75
2022/01/15 12:43:25;;;;;;;9.07;4.50;;;7.20;94.20;;;;;;4992791;28;20050;-75
2022/01/15 12:45:55;;;;;;;4.57;3.22;;;7.50;92.90;;;;;;4997976;28;20026;-75
2022/01/15 12:48:23;;;;;;;6.68;4.15;;;7.40;93.80;;;;;;4992219;28;20058;-74
2022/01/15 12:50:55;;;;;;;5.90;3.47;;;7.20;94.70;;;;;;4991679;28;20026;-74
2022/01/15 12:53:23;;;;;;;4.60;3.38;;;7.00;93.70;;;;;;4997894;28;20147;-74
2022/01/15 12:55:50;;;;;;;3.92;3.08;;;7.40;93.20;;;;;;5001328;28;20088;-74
2022/01/15 12:58:22;;;;;;;3.83;3.22;;;7.30;93.80;;;;;;5000948;28;20031;-74
2022/01/15 13:00:48;;;;;;;4.40;3.40;;;6.90;94.20;;;;;;4996095;28;20344;-74
2022/01/15 13:03:19;;;;;;;5.57;2.97;;;7.50;93.30;;;;;;5001420;28;20077;-74